Time;durP1;ratioP1;P1;durP2;ratioP2;P2;SDS_P1;SDS_P2;PMS_P1;PMS_P2;Temp;Humidity;BMP_temperature;BMP_pressure;BME280_temperature;BME280_humidity;BME280_pressure;Samples;Min_cycle;Max_cycle;Signal;HPM_P1;HPM_P2
2022/09/23 00:02:09;;;;;;;10.25;5.65;;;;;;;;;;5091983;28;20056;-45
2022/09/23 00:04:37;;;;;;;12.35;5.43;;;;;;;;;;5091947;28;20558;-46
2022/09/23 00:07:03;;;;;;;9.32;4.00;;;;;;;;;;5084185;28;20055;-47
2022/09/23 00:09:33;;;;;;;12.10;5.05;;;;;;;;;;5091191;28;20067;-45
2022/09/23 00:12:00;;;;;;;9.18;4.25;;;;;;;;;;5091550;28;20079;-46
2022/09/23 00:14:30;;;;;;;7.68;4.05;;;;;;;;;;5085876;28;20472;-49
2022/09/23 00:16:57;;;;;;;9.45;3.92;;;;;;;;;;5088299;28;20052;-46
2022/09/23 00:19:25;;;;;;;6.00;3.17;;;;;;;;;;5094540;28;20059;-45
2022/09/23 00:21:55;;;;;;;7.40;3.80;;;;;;;;;;5095595;28;20515;-47
2022/09/23 00:24:23;;;;;;;7.20;3.50;;;;;;;;;;5094872;28;20082;-46
2022/09/23 00:26:51;;;;;;;6.50;3.08;;;;;;;;;;5095235;28;20430;-46
2022/09/23 00:29:22;;;;;;;5.13;3.15;;;;;;;;;;5094753;28;20105;-48
2022/09/23 00:31:51;;;;;;;6.10;3.42;;;;;;;;;;5095722;28;20075;-50
2022/09/23 00:34:20;;;;;;;7.13;2.83;;;;;;;;;;5085528;28;20089;-47
2022/09/23 00:36:50;;;;;;;9.13;3.35;;;;;;;;;;5094999;28;20040;-46
2022/09/23 00:39:18;;;;;;;8.35;3.30;;;;;;;;;;5094980;28;20063;-49
2022/09/23 00:41:49;;;;;;;5.57;2.90;;;;;;;;;;5095340;28;20048;-50
2022/09/23 00:44:36;;;;;;;4.82;2.35;;;;;;;;;;5093560;28;20098;-46
2022/09/23 00:47:10;;;;;;;6.65;2.83;;;;;;;;;;5082901;28;20048;-50
2022/09/23 00:49:40;;;;;;;6.90;2.73;;;;;;;;;;5095251;28;20052;-48
2022/09/23 00:52:11;;;;;;;5.05;2.92;;;;;;;;;;5084230;28;20055;-47
2022/09/23 00:54:40;;;;;;;6.57;2.95;;;;;;;;;;5087555;28;20052;-46
2022/09/23 00:57:10;;;;;;;4.57;3.10;;;;;;;;;;5080189;28;20094;-47
2022/09/23 00:59:38;;;;;;;6.90;2.92;;;;;;;;;;5091521;28;20100;-46
2022/09/23 01:02:14;;;;;;;5.28;2.28;;;;;;;;;;5092402;28;20048;-46
2022/09/23 01:04:43;;;;;;;4.13;2.20;;;;;;;;;;5095219;28;20052;-47
2022/09/23 01:07:16;;;;;;;4.57;2.40;;;;;;;;;;5094427;28;20048;-49
2022/09/23 01:09:47;;;;;;;3.55;1.80;;;;;;;;;;5088708;28;20537;-47
2022/09/23 01:12:23;;;;;;;6.95;2.63;;;;;;;;;;5094519;28;20044;-47
2022/09/23 01:14:58;;;;;;;6.63;3.08;;;;;;;;;;5085949;28;20048;-45
2022/09/23 01:17:35;;;;;;;4.60;2.30;;;;;;;;;;5094257;28;20177;-46
2022/09/23 01:20:12;;;;;;;5.03;2.75;;;;;;;;;;5094285;28;20372;-49
2022/09/23 01:22:45;;;;;;;4.75;2.28;;;;;;;;;;5093779;28;20054;-49
2022/09/23 01:25:30;;;;;;;5.65;2.97;;;;;;;;;;5091137;28;20048;-46
2022/09/23 01:28:16;;;;;;;4.70;2.60;;;;;;;;;;5085752;28;20130;-47
2022/09/23 01:31:00;;;;;;;5.22;2.47;;;;;;;;;;5082080;28;20048;-46
2022/09/23 01:33:32;;;;;;;4.80;2.22;;;;;;;;;;5093814;28;20143;-48
2022/09/23 01:36:02;;;;;;;5.35;2.72;;;;;;;;;;5094226;28;20056;-47
2022/09/23 01:38:37;;;;;;;7.18;2.83;;;;;;;;;;5093653;28;20048;-47
2022/09/23 01:41:13;;;;;;;7.28;3.00;;;;;;;;;;5093942;28;20062;-48
2022/09/23 01:44:12;;;;;;;5.88;2.63;;;;;;;;;;5093645;28;20047;-48
2022/09/23 01:46:47;;;;;;;7.68;3.10;;;;;;;;;;5093351;28;20113;-47
2022/09/23 01:49:24;;;;;;;4.72;2.60;;;;;;;;;;5093790;28;20047;-49
2022/09/23 01:51:56;;;;;;;5.40;2.60;;;;;;;;;;5100395;28;20065;-46
2022/09/23 01:54:26;;;;;;;8.45;3.17;;;;;;;;;;5092349;28;20048;-48
2022/09/23 01:57:00;;;;;;;6.85;2.58;;;;;;;;;;5092889;28;20044;-47
2022/09/23 01:59:33;;;;;;;4.68;2.05;;;;;;;;;;5089371;28;20152;-48
2022/09/23 02:02:04;;;;;;;4.07;1.85;;;;;;;;;;5085783;28;20048;-49
2022/09/23 02:04:46;;;;;;;4.45;2.05;;;;;;;;;;5093503;28;20048;-45
2022/09/23 02:07:19;;;;;;;6.97;2.92;;;;;;;;;;5093837;28;20070;-47
2022/09/23 02:09:53;;;;;;;5.30;2.67;;;;;;;;;;5093314;28;20047;-50
2022/09/23 02:12:24;;;;;;;5.97;2.28;;;;;;;;;;5086166;28;20078;-47
2022/09/23 02:14:56;;;;;;;4.70;2.25;;;;;;;;;;5078918;28;20052;-48
2022/09/23 02:17:31;;;;;;;3.90;2.17;;;;;;;;;;5087268;28;20059;-49
2022/09/23 02:20:04;;;;;;;4.55;1.90;;;;;;;;;;5083863;28;20066;-50
2022/09/23 02:22:34;;;;;;;4.68;1.90;;;;;;;;;;5093315;28;20040;-49
2022/09/23 02:25:05;;;;;;;3.85;2.20;;;;;;;;;;5093402;28;20052;-47
2022/09/23 02:27:42;;;;;;;3.63;1.70;;;;;;;;;;5090431;28;20063;-46
2022/09/23 02:30:11;;;;;;;4.45;2.25;;;;;;;;;;5093119;28;20124;-49
2022/09/23 02:32:45;;;;;;;6.55;2.22;;;;;;;;;;5093170;28;20163;-46
2022/09/23 02:35:18;;;;;;;5.28;3.17;;;;;;;;;;5093078;28;20346;-49
2022/09/23 02:37:52;;;;;;;5.68;2.40;;;;;;;;;;5092866;28;20044;-45
2022/09/23 02:40:24;;;;;;;6.00;2.53;;;;;;;;;;5093002;28;20055;-46
2022/09/23 02:42:59;;;;;;;4.97;2.40;;;;;;;;;;5092343;28;20683;-46
2022/09/23 02:45:30;;;;;;;6.68;2.85;;;;;;;;;;5093070;28;20109;-48
2022/09/23 02:48:02;;;;;;;5.10;2.17;;;;;;;;;;5092663;28;20078;-48
2022/09/23 02:50:33;;;;;;;3.80;2.10;;;;;;;;;;5093358;28;20083;-47
2022/09/23 02:53:03;;;;;;;5.60;3.00;;;;;;;;;;5086758;28;20373;-46
2022/09/23 02:55:33;;;;;;;5.75;2.90;;;;;;;;;;5092697;28;20064;-46
2022/09/23 02:58:04;;;;;;;5.78;2.42;;;;;;;;;;5092917;28;20056;-46
2022/09/23 03:00:40;;;;;;;5.82;2.63;;;;;;;;;;5080001;28;20091;-48
2022/09/23 03:03:32;;;;;;;4.60;1.98;;;;;;;;;;5079563;28;20369;-47
2022/09/23 03:06:06;;;;;;;4.82;1.98;;;;;;;;;;5085777;28;20049;-47
2022/09/23 03:08:41;;;;;;;5.00;2.20;;;;;;;;;;5092699;28;20043;-46
2022/09/23 03:11:10;;;;;;;5.75;2.17;;;;;;;;;;5089089;28;20105;-48
2022/09/23 03:13:42;;;;;;;4.20;2.08;;;;;;;;;;5092095;28;20048;-46
2022/09/23 03:16:19;;;;;;;7.72;2.53;;;;;;;;;;5091700;28;20135;-45
2022/09/23 03:19:12;;;;;;;5.55;2.55;;;;;;;;;;5093038;28;20040;-46
2022/09/23 03:21:41;;;;;;;5.10;2.20;;;;;;;;;;5091879;28;20047;-47
2022/09/23 03:24:13;;;;;;;4.65;2.25;;;;;;;;;;5092600;28;20059;-46
2022/09/23 03:26:40;;;;;;;7.05;2.22;;;;;;;;;;5092278;28;20051;-47
2022/09/23 03:29:18;;;;;;;4.65;1.98;;;;;;;;;;5092291;28;20055;-45
2022/09/23 03:31:48;;;;;;;3.72;1.90;;;;;;;;;;5091716;28;20059;-48
2022/09/23 03:34:22;;;;;;;3.67;1.85;;;;;;;;;;5081834;28;20055;-47
2022/09/23 03:36:59;;;;;;;6.93;2.25;;;;;;;;;;5092303;28;20052;-48
2022/09/23 03:39:34;;;;;;;3.45;1.75;;;;;;;;;;5082445;28;20083;-46
2022/09/23 03:42:03;;;;;;;4.70;2.03;;;;;;;;;;5092150;28;20139;-46
2022/09/23 03:44:36;;;;;;;4.03;1.60;;;;;;;;;;5091687;28;20056;-47
2022/09/23 03:47:06;;;;;;;5.15;2.13;;;;;;;;;;5091907;28;20433;-47
2022/09/23 03:49:42;;;;;;;6.18;1.77;;;;;;;;;;5092098;28;20047;-48
2022/09/23 03:52:10;;;;;;;4.22;1.80;;;;;;;;;;5091532;28;20060;-45
2022/09/23 03:54:36;;;;;;;3.15;1.90;;;;;;;;;;5093699;28;20051;-48
2022/09/23 03:57:07;;;;;;;3.03;1.60;;;;;;;;;;5095470;28;20051;-47
2022/09/23 03:59:33;;;;;;;3.92;1.70;;;;;;;;;;5078292;28;20525;-47
2022/09/23 04:02:10;;;;;;;3.50;1.42;;;;;;;;;;5089879;28;20142;-48
2022/09/23 04:04:43;;;;;;;6.93;2.17;;;;;;;;;;5095437;28;20720;-48
2022/09/23 04:07:11;;;;;;;2.85;1.70;;;;;;;;;;5094825;28;20054;-45
2022/09/23 04:09:40;;;;;;;3.13;1.73;;;;;;;;;;5095655;28;20050;-46
2022/09/23 04:12:07;;;;;;;3.17;1.50;;;;;;;;;;5095553;28;20063;-49
2022/09/23 04:14:37;;;;;;;2.75;1.55;;;;;;;;;;5095234;28;20044;-46
2022/09/23 04:17:05;;;;;;;4.22;1.70;;;;;;;;;;5090049;28;20052;-47
2022/09/23 04:19:33;;;;;;;4.10;1.77;;;;;;;;;;5087602;28;20056;-47
2022/09/23 04:22:11;;;;;;;3.42;1.48;;;;;;;;;;5092324;28;20048;-47
2022/09/23 04:24:37;;;;;;;2.08;1.10;;;;;;;;;;5095287;28;20048;-48
2022/09/23 04:27:08;;;;;;;3.17;1.67;;;;;;;;;;5082576;28;20043;-47
2022/09/23 04:29:35;;;;;;;3.45;1.60;;;;;;;;;;5095773;28;20048;-50
2022/09/23 04:32:02;;;;;;;2.83;1.60;;;;;;;;;;5094630;28;20478;-48
2022/09/23 04:34:29;;;;;;;3.70;1.90;;;;;;;;;;5095053;28;20060;-47
2022/09/23 04:36:59;;;;;;;5.68;1.55;;;;;;;;;;5095177;28;20052;-46
2022/09/23 04:39:30;;;;;;;4.15;1.70;;;;;;;;;;5095299;28;20051;-49
2022/09/23 04:41:58;;;;;;;2.55;1.40;;;;;;;;;;5094772;28;20063;-46
2022/09/23 04:44:26;;;;;;;3.33;1.58;;;;;;;;;;5094759;28;20052;-49
2022/09/23 04:46:55;;;;;;;3.65;1.67;;;;;;;;;;5095360;28;20105;-46
2022/09/23 04:49:25;;;;;;;2.38;1.17;;;;;;;;;;5080971;28;20090;-47
2022/09/23 04:51:54;;;;;;;2.22;1.17;;;;;;;;;;5094944;28;20167;-48
2022/09/23 04:54:22;;;;;;;2.20;1.00;;;;;;;;;;5091072;28;20074;-47
2022/09/23 04:56:52;;;;;;;4.43;1.45;;;;;;;;;;5095080;28;20105;-46
2022/09/23 04:59:20;;;;;;;2.85;1.40;;;;;;;;;;5091017;28;20066;-47
2022/09/23 05:01:54;;;;;;;3.40;1.50;;;;;;;;;;5085113;28;20083;-47
2022/09/23 05:04:24;;;;;;;5.22;1.42;;;;;;;;;;5094719;28;20059;-49
2022/09/23 05:06:52;;;;;;;2.95;1.83;;;;;;;;;;5094341;28;20076;-46
2022/09/23 05:09:20;;;;;;;3.55;1.45;;;;;;;;;;5094156;28;20443;-46
2022/09/23 05:11:53;;;;;;;2.58;1.55;;;;;;;;;;5094510;28;20117;-46
2022/09/23 05:14:23;;;;;;;3.50;1.48;;;;;;;;;;5094572;28;20056;-48
2022/09/23 05:16:52;;;;;;;4.13;1.60;;;;;;;;;;5093956;28;20107;-49
2022/09/23 05:19:21;;;;;;;4.03;1.80;;;;;;;;;;5093655;28;20148;-47
2022/09/23 05:21:48;;;;;;;3.80;1.58;;;;;;;;;;5094762;28;20146;-45
2022/09/23 05:24:15;;;;;;;4.40;1.80;;;;;;;;;;5083682;28;20055;-47
2022/09/23 05:26:43;;;;;;;4.65;1.30;;;;;;;;;;5094144;28;20074;-49
2022/09/23 05:29:21;;;;;;;5.82;1.50;;;;;;;;;;5094193;28;20052;-47
2022/09/23 05:31:49;;;;;;;3.28;1.25;;;;;;;;;;5094541;28;20122;-46
2022/09/23 05:34:17;;;;;;;8.27;1.23;;;;;;;;;;5090659;28;20119;-45
2022/09/23 05:36:47;;;;;;;4.50;1.42;;;;;;;;;;5094402;28;20055;-46
2022/09/23 05:39:18;;;;;;;4.55;1.42;;;;;;;;;;5094213;28;20044;-49
2022/09/23 05:41:48;;;;;;;3.10;1.10;;;;;;;;;;5093793;28;20052;-45
2022/09/23 05:44:20;;;;;;;2.58;1.05;;;;;;;;;;5093630;28;20095;-45
2022/09/23 05:46:47;;;;;;;3.83;1.50;;;;;;;;;;5093850;28;20441;-45
2022/09/23 05:49:15;;;;;;;3.75;1.02;;;;;;;;;;5092288;28;20071;-46
2022/09/23 05:51:43;;;;;;;6.30;1.17;;;;;;;;;;5093928;28;20195;-45
2022/09/23 05:54:13;;;;;;;3.55;1.08;;;;;;;;;;5092842;28;20426;-45
2022/09/23 05:56:43;;;;;;;3.58;1.13;;;;;;;;;;5093386;28;20051;-45
2022/09/23 05:59:13;;;;;;;4.30;0.77;;;;;;;;;;5091928;28;20559;-46
2022/09/23 06:01:43;;;;;;;3.20;0.90;;;;;;;;;;5093623;28;20044;-47
2022/09/23 06:04:14;;;;;;;4.22;0.95;;;;;;;;;;5093219;28;20066;-46
2022/09/23 06:06:43;;;;;;;2.75;0.80;;;;;;;;;;5092924;28;20055;-48
2022/09/23 06:09:13;;;;;;;2.30;0.77;;;;;;;;;;5093089;28;20202;-46
2022/09/23 06:11:40;;;;;;;2.53;1.10;;;;;;;;;;5090516;28;20486;-46
2022/09/23 06:14:11;;;;;;;2.25;1.00;;;;;;;;;;5093352;28;20135;-46
2022/09/23 06:16:41;;;;;;;3.28;0.93;;;;;;;;;;5092874;28;20040;-46
2022/09/23 06:19:12;;;;;;;2.63;1.10;;;;;;;;;;5086086;28;20067;-46
2022/09/23 06:21:47;;;;;;;4.18;0.90;;;;;;;;;;5072190;28;20048;-46
2022/09/23 06:24:18;;;;;;;4.53;0.80;;;;;;;;;;5061991;28;20060;-46
2022/09/23 06:26:47;;;;;;;2.53;0.95;;;;;;;;;;5068986;28;20135;-46
2022/09/23 06:29:17;;;;;;;2.90;1.10;;;;;;;;;;5072173;28;20055;-47
2022/09/23 06:31:46;;;;;;;4.60;1.15;;;;;;;;;;5072389;28;20059;-46
2022/09/23 06:34:30;;;;;;;4.82;1.25;;;;;;;;;;5072610;28;20058;-46
2022/09/23 06:36:58;;;;;;;2.45;0.90;;;;;;;;;;5072299;28;20127;-48
2022/09/23 06:39:26;;;;;;;2.60;1.20;;;;;;;;;;5060330;28;20045;-46
2022/09/23 06:41:54;;;;;;;3.65;1.10;;;;;;;;;;5072554;28;20084;-49
2022/09/23 06:44:21;;;;;;;5.78;1.20;;;;;;;;;;5072934;28;20060;-47
2022/09/23 06:46:52;;;;;;;2.20;1.08;;;;;;;;;;5072609;28;20052;-47
2022/09/23 06:49:22;;;;;;;1.95;1.00;;;;;;;;;;5071929;28;20041;-48
2022/09/23 06:51:49;;;;;;;2.42;1.00;;;;;;;;;;5072657;28;20058;-49
2022/09/23 06:54:20;;;;;;;3.42;1.10;;;;;;;;;;5061250;28;20071;-47
2022/09/23 06:56:50;;;;;;;4.22;1.05;;;;;;;;;;5072725;28;20049;-46
2022/09/23 06:59:18;;;;;;;2.13;1.00;;;;;;;;;;5069439;28;20102;-47
2022/09/23 07:01:49;;;;;;;3.72;1.20;;;;;;;;;;5062454;28;20671;-47
2022/09/23 07:04:16;;;;;;;3.15;0.90;;;;;;;;;;5066385;28;20059;-48
2022/09/23 07:06:51;;;;;;;2.25;0.70;;;;;;;;;;5070229;28;20044;-50
2022/09/23 07:09:21;;;;;;;5.32;1.23;;;;;;;;;;5072085;28;20052;-45
2022/09/23 07:11:49;;;;;;;2.65;0.80;;;;;;;;;;5072652;28;20048;-48
2022/09/23 07:14:18;;;;;;;7.03;0.95;;;;;;;;;;5071440;28;20058;-48
2022/09/23 07:16:56;;;;;;;3.50;1.05;;;;;;;;;;5068162;28;20052;-47
2022/09/23 07:19:25;;;;;;;4.18;1.13;;;;;;;;;;5073382;28;20461;-45
2022/09/23 07:22:07;;;;;;;3.30;1.20;;;;;;;;;;5089695;28;20631;-50
2022/09/23 07:24:36;;;;;;;4.72;1.30;;;;;;;;;;5091257;28;20059;-47
2022/09/23 07:27:05;;;;;;;3.80;1.20;;;;;;;;;;5089133;28;20477;-46
2022/09/23 07:29:32;;;;;;;5.15;1.50;;;;;;;;;;5081204;28;20070;-46
2022/09/23 07:32:02;;;;;;;6.30;1.20;;;;;;;;;;5093943;28;20055;-46
2022/09/23 07:34:32;;;;;;;4.35;1.10;;;;;;;;;;5090858;28;20154;-47
2022/09/23 07:37:00;;;;;;;5.47;1.48;;;;;;;;;;5092976;28;20134;-45
2022/09/23 07:39:26;;;;;;;3.83;1.42;;;;;;;;;;5093863;28;20051;-46
2022/09/23 07:41:56;;;;;;;4.85;1.65;;;;;;;;;;5094025;28;20056;-47
2022/09/23 07:44:26;;;;;;;5.65;1.40;;;;;;;;;;5095235;28;20044;-48
2022/09/23 07:46:53;;;;;;;2.50;0.85;;;;;;;;;;5096156;28;20048;-47
2022/09/23 07:49:22;;;;;;;8.57;1.50;;;;;;;;;;5094879;28;20123;-46
2022/09/23 07:51:51;;;;;;;8.02;1.60;;;;;;;;;;5096504;28;20044;-46
2022/09/23 07:54:28;;;;;;;3.50;1.35;;;;;;;;;;5094042;28;20138;-49
2022/09/23 07:56:56;;;;;;;5.43;1.17;;;;;;;;;;5096279;28;20043;-47
2022/09/23 07:59:26;;;;;;;8.57;1.27;;;;;;;;;;5094939;28;20058;-47
2022/09/23 08:01:55;;;;;;;3.35;1.35;;;;;;;;;;5096219;28;20052;-47
2022/09/23 08:04:31;;;;;;;8.55;1.50;;;;;;;;;;5096030;28;20051;-50
2022/09/23 08:06:59;;;;;;;4.03;1.40;;;;;;;;;;5094738;28;20052;-46
2022/09/23 08:09:30;;;;;;;7.05;1.58;;;;;;;;;;5095384;28;20135;-50
2022/09/23 08:11:57;;;;;;;2.22;0.93;;;;;;;;;;5094831;28;20052;-47
2022/09/23 08:14:25;;;;;;;4.68;1.48;;;;;;;;;;5095236;28;20098;-50
2022/09/23 08:16:56;;;;;;;3.42;1.30;;;;;;;;;;5086562;28;20079;-46
2022/09/23 08:19:25;;;;;;;2.55;1.10;;;;;;;;;;5093625;28;20118;-45
2022/09/23 08:21:53;;;;;;;4.80;1.40;;;;;;;;;;5092478;28;20051;-46
2022/09/23 08:24:31;;;;;;;3.25;1.42;;;;;;;;;;5094563;28;20040;-46
2022/09/23 08:27:13;;;;;;;2.55;1.25;;;;;;;;;;5094921;28;20055;-48
2022/09/23 08:29:43;;;;;;;5.68;1.35;;;;;;;;;;5095027;28;20040;-46
2022/09/23 08:32:11;;;;;;;3.47;1.05;;;;;;;;;;5094359;28;20067;-47
2022/09/23 08:34:38;;;;;;;2.95;1.10;;;;;;;;;;5095079;28;20044;-50
2022/09/23 08:37:09;;;;;;;3.15;1.40;;;;;;;;;;5095137;28;20448;-50
2022/09/23 08:39:36;;;;;;;4.57;1.35;;;;;;;;;;5091583;28;20039;-47
2022/09/23 08:42:12;;;;;;;4.53;1.30;;;;;;;;;;5094543;28;20144;-47
2022/09/23 08:44:44;;;;;;;7.40;1.17;;;;;;;;;;5092056;28;20095;-47
2022/09/23 08:47:24;;;;;;;5.30;1.17;;;;;;;;;;5091077;28;20468;-47
2022/09/23 08:50:05;;;;;;;3.97;1.60;;;;;;;;;;5088067;28;20072;-45
2022/09/23 08:52:42;;;;;;;6.15;1.25;;;;;;;;;;5087358;28;20711;-46
2022/09/23 08:55:19;;;;;;;5.82;1.48;;;;;;;;;;5094478;28;20509;-46
2022/09/23 08:57:57;;;;;;;2.42;0.80;;;;;;;;;;5093501;28;20109;-47
2022/09/23 09:00:29;;;;;;;6.68;1.20;;;;;;;;;;5084381;28;20040;-48
2022/09/23 09:02:55;;;;;;;4.43;0.80;;;;;;;;;;5090691;28;20044;-46
2022/09/23 09:05:25;;;;;;;3.75;0.90;;;;;;;;;;5092895;28;20131;-46
2022/09/23 09:07:53;;;;;;;2.33;0.80;;;;;;;;;;5092743;28;20044;-46
2022/09/23 09:10:22;;;;;;;2.10;1.00;;;;;;;;;;5092756;28;20114;-46
2022/09/23 09:12:54;;;;;;;1.08;0.57;;;;;;;;;;5093582;28;20052;-47
2022/09/23 09:15:27;;;;;;;2.72;0.82;;;;;;;;;;5078923;28;20544;-46
2022/09/23 09:18:00;;;;;;;3.03;0.80;;;;;;;;;;5089109;28;20548;-46
2022/09/23 09:20:33;;;;;;;2.90;0.88;;;;;;;;;;5081225;28;20649;-47
2022/09/23 09:23:04;;;;;;;6.93;0.90;;;;;;;;;;5089975;28;20144;-46
2022/09/23 09:25:45;;;;;;;3.75;0.70;;;;;;;;;;5092556;28;20482;-45
2022/09/23 09:28:29;;;;;;;5.20;1.02;;;;;;;;;;5093302;28;20113;-47
2022/09/23 09:30:59;;;;;;;1.70;0.55;;;;;;;;;;5081021;28;20354;-47
2022/09/23 09:33:32;;;;;;;3.35;0.60;;;;;;;;;;5091101;28;20064;-49
2022/09/23 09:36:29;;;;;;;4.78;0.93;;;;;;;;;;5094177;28;20444;-47
2022/09/23 09:38:57;;;;;;;5.07;0.90;;;;;;;;;;5088789;28;20052;-48
2022/09/23 09:41:42;;;;;;;1.95;0.68;;;;;;;;;;5093845;28;20063;-46
2022/09/23 09:44:23;;;;;;;4.93;0.80;;;;;;;;;;5094030;28;20051;-50
2022/09/23 09:47:00;;;;;;;3.45;0.68;;;;;;;;;;5094085;28;20384;-48
2022/09/23 09:49:30;;;;;;;4.85;1.00;;;;;;;;;;5094158;28;20087;-47
2022/09/23 09:52:47;;;;;;;1.95;0.68;;;;;;;;;;5093045;28;20128;-47
2022/09/23 09:55:17;;;;;;;;;;;;;;;;;;5085997;28;20079;-47
2022/09/23 09:57:48;;;;;;;1.98;0.55;;;;;;;;;;5093470;28;19957;-49
2022/09/23 10:00:35;;;;;;;3.13;0.70;;;;;;;;;;5085069;28;20056;-46
2022/09/23 10:03:07;;;;;;;1.73;0.60;;;;;;;;;;5078985;28;20047;-48
2022/09/23 10:05:38;;;;;;;3.78;0.70;;;;;;;;;;5085070;28;20054;-46
2022/09/23 10:08:23;;;;;;;5.07;0.70;;;;;;;;;;5091631;28;20058;-47
2022/09/23 10:11:00;;;;;;;2.78;0.90;;;;;;;;;;5087982;28;20140;-47
2022/09/23 10:13:29;;;;;;;5.28;0.75;;;;;;;;;;5091027;28;20077;-48
2022/09/23 10:16:00;;;;;;;8.23;1.10;;;;;;;;;;5091776;28;20040;-47
2022/09/23 10:18:33;;;;;;;3.55;0.85;;;;;;;;;;5090895;28;20489;-46
2022/09/23 10:21:01;;;;;;;2.90;0.75;;;;;;;;;;5091657;28;20522;-46
2022/09/23 10:23:32;;;;;;;5.80;0.90;;;;;;;;;;5089081;28;20078;-47
2022/09/23 10:26:01;;;;;;;5.57;1.00;;;;;;;;;;5091655;28;20693;-49
2022/09/23 10:28:32;;;;;;;6.78;0.73;;;;;;;;;;5092181;28;20051;-47
2022/09/23 10:31:25;;;;;;;7.82;1.40;;;;;;;;;;5092536;28;20042;-46
2022/09/23 10:33:56;;;;;;;5.63;1.00;;;;;;;;;;5091964;28;20101;-47
2022/09/23 10:36:23;;;;;;;2.33;0.80;;;;;;;;;;5092630;28;20121;-48
2022/09/23 10:46:36;;;;;;;4.13;0.57;;;;;;;;;;5091908;28;20044;-47
2022/09/23 10:47:27;;;;;;;7.03;1.02;;;;;;;;;;5092755;28;20050;-46
2022/09/23 10:50:08;;;;;;;5.93;0.80;;;;;;;;;;5092906;28;20035;-47
2022/09/23 10:52:43;;;;;;;4.55;0.60;;;;;;;;;;5092614;28;20048;-47
2022/09/23 10:55:21;;;;;;;3.90;0.80;;;;;;;;;;5093155;28;20056;-46
2022/09/23 10:57:58;;;;;;;2.88;0.60;;;;;;;;;;5092592;28;20052;-47
2022/09/23 11:00:35;;;;;;;1.95;0.52;;;;;;;;;;5089045;28;20054;-47
2022/09/23 11:03:17;;;;;;;1.85;0.60;;;;;;;;;;5092645;28;20048;-48
2022/09/23 11:05:54;;;;;;;5.47;0.82;;;;;;;;;;5092091;28;20429;-47
2022/09/23 11:08:35;;;;;;;2.00;0.47;;;;;;;;;;5093082;28;20051;-47
2022/09/23 11:11:32;;;;;;;8.98;1.15;;;;;;;;;;5091715;28;20579;-47
2022/09/23 11:14:14;;;;;;;4.72;0.82;;;;;;;;;;5092938;28;20051;-46
2022/09/23 11:16:47;;;;;;;4.80;0.77;;;;;;;;;;5089531;28;20055;-47
2022/09/23 11:19:25;;;;;;;3.65;0.80;;;;;;;;;;5092203;28;20056;-48
2022/09/23 11:22:08;;;;;;;4.97;0.88;;;;;;;;;;5079631;28;20112;-49
2022/09/23 11:24:49;;;;;;;3.90;1.10;;;;;;;;;;5090356;28;20063;-49
2022/09/23 11:27:27;;;;;;;4.60;0.82;;;;;;;;;;5092538;28;20135;-46
2022/09/23 11:30:05;;;;;;;1.88;0.60;;;;;;;;;;5078347;28;20056;-49
2022/09/23 11:33:01;;;;;;;1.65;0.55;;;;;;;;;;5079366;28;20078;-47
2022/09/23 11:35:46;;;;;;;2.28;0.55;;;;;;;;;;5091483;28;20583;-47
2022/09/23 11:38:25;;;;;;;3.85;0.60;;;;;;;;;;5092667;28;20135;-46
2022/09/23 11:40:56;;;;;;;3.63;0.65;;;;;;;;;;5085685;28;20055;-50
2022/09/23 11:43:25;;;;;;;2.95;0.60;;;;;;;;;;5085408;28;20044;-47
2022/09/23 11:45:57;;;;;;;2.50;0.65;;;;;;;;;;5092236;28;20106;-47
2022/09/23 11:48:32;;;;;;;1.88;0.57;;;;;;;;;;5091872;28;20056;-46
2022/09/23 11:51:03;;;;;;;0.80;0.30;;;;;;;;;;5092027;28;20127;-46
2022/09/23 11:53:38;;;;;;;2.60;0.50;;;;;;;;;;5088648;28;20387;-48
2022/09/23 11:56:09;;;;;;;2.28;0.45;;;;;;;;;;5091901;28;20476;-49
2022/09/23 11:58:39;;;;;;;4.03;0.40;;;;;;;;;;5091835;28;20698;-45
2022/09/23 12:01:09;;;;;;;1.10;0.40;;;;;;;;;;5078264;28;20083;-46
2022/09/23 12:03:46;;;;;;;2.15;0.60;;;;;;;;;;5091190;28;20052;-46
2022/09/23 12:06:20;;;;;;;6.60;0.90;;;;;;;;;;5091860;28;20048;-46
2022/09/23 12:08:56;;;;;;;6.75;0.80;;;;;;;;;;5092228;28;20116;-46
2022/09/23 12:11:27;;;;;;;9.70;0.70;;;;;;;;;;5091034;28;20040;-47
2022/09/23 12:14:01;;;;;;;2.33;0.43;;;;;;;;;;5092410;28;20048;-46
2022/09/23 12:16:53;;;;;;;6.07;0.70;;;;;;;;;;5095560;28;20353;-47
2022/09/23 12:19:39;;;;;;;3.60;0.60;;;;;;;;;;5090766;28;20549;-46
2022/09/23 12:22:24;;;;;;;3.72;0.50;;;;;;;;;;5091235;28;20320;-45
2022/09/23 12:24:59;;;;;;;3.20;0.40;;;;;;;;;;5090109;28;20051;-47
2022/09/23 12:27:35;;;;;;;1.55;0.50;;;;;;;;;;5087782;28;20048;-46
2022/09/23 12:30:04;;;;;;;3.50;0.82;;;;;;;;;;5090672;28;20163;-48
2022/09/23 12:32:35;;;;;;;1.83;0.80;;;;;;;;;;5095484;28;20671;-49
2022/09/23 12:35:04;;;;;;;2.40;0.40;;;;;;;;;;5095564;28;20060;-46
2022/09/23 12:37:45;;;;;;;1.95;0.35;;;;;;;;;;5086957;28;20429;-47
2022/09/23 12:40:19;;;;;;;1.50;0.47;;;;;;;;;;5094300;28;20062;-47
2022/09/23 12:42:47;;;;;;;1.33;0.50;;;;;;;;;;5079051;28;20048;-47
2022/09/23 12:45:33;;;;;;;1.27;0.70;;;;;;;;;;5074351;28;20471;-46
2022/09/23 12:48:18;;;;;;;0.57;0.40;;;;;;;;;;5090068;28;20116;-48
2022/09/23 12:50:55;;;;;;;0.93;0.45;;;;;;;;;;5093530;28;20052;-45
2022/09/23 12:53:57;;;;;;;2.75;0.43;;;;;;;;;;5094625;28;20044;-49
2022/09/23 12:56:51;;;;;;;2.25;0.60;;;;;;;;;;5022613;28;20164;-50
2022/09/23 12:59:26;;;;;;;0.88;0.20;;;;;;;;;;5025308;28;20193;-48
2022/09/23 13:02:02;;;;;;;1.08;0.55;;;;;;;;;;5074352;28;20054;-50
2022/09/23 13:07:22;;;;;;;1.10;0.45;;;;;;;;;;5080213;28;20059;-46
2022/09/23 13:09:51;;;;;;;3.28;0.57;;;;;;;;;;5087829;28;20067;-46
2022/09/23 13:12:23;;;;;;;3.35;0.70;;;;;;;;;;5093113;28;20048;-47
2022/09/23 13:14:56;;;;;;;1.77;0.52;;;;;;;;;;5093181;28;20048;-47
2022/09/23 13:17:33;;;;;;;2.88;0.50;;;;;;;;;;5091573;28;20563;-49
2022/09/23 13:20:07;;;;;;;1.95;0.52;;;;;;;;;;5093902;28;20047;-49
2022/09/23 13:23:00;;;;;;;4.72;0.70;;;;;;;;;;5093819;28;20385;-47
2022/09/23 13:25:31;;;;;;;1.52;0.63;;;;;;;;;;4991234;28;20058;-47
2022/09/23 13:28:02;;;;;;;3.40;0.63;;;;;;;;;;4990210;28;20058;-47
2022/09/23 13:30:32;;;;;;;6.32;0.60;;;;;;;;;;4991334;28;20046;-48
2022/09/23 13:33:06;;;;;;;1.77;0.60;;;;;;;;;;4990236;28;20050;-48
2022/09/23 13:35:36;;;;;;;0.75;0.50;;;;;;;;;;4991684;28;20105;-50
2022/09/23 13:38:18;;;;;;;2.63;0.73;;;;;;;;;;4992294;28;20050;-46
2022/09/23 13:40:46;;;;;;;3.47;0.45;;;;;;;;;;4991251;28;20043;-47
2022/09/23 13:43:20;;;;;;;2.92;0.70;;;;;;;;;;4992020;28;20046;-47
2022/09/23 13:46:04;;;;;;;4.03;0.60;;;;;;;;;;4991661;28;20058;-48
2022/09/23 13:48:34;;;;;;;6.13;0.90;;;;;;;;;;4984254;28;20061;-48
2022/09/23 13:51:08;;;;;;;2.80;0.55;;;;;;;;;;4992618;28;20475;-49
2022/09/23 13:53:37;;;;;;;2.27;0.40;;;;;;;;;;4984306;28;20057;-48
2022/09/23 13:56:07;;;;;;;2.90;0.60;;;;;;;;;;4991662;28;20376;-47
2022/09/23 13:58:43;;;;;;;3.63;0.60;;;;;;;;;;4991231;28;20530;-47
2022/09/23 14:01:24;;;;;;;4.30;0.70;;;;;;;;;;4982132;28;20054;-47
2022/09/23 14:03:54;;;;;;;4.05;0.77;;;;;;;;;;5093044;28;20109;-47
2022/09/23 14:06:20;;;;;;;2.15;0.80;;;;;;;;;;5093473;28;20043;-46
2022/09/23 14:08:52;;;;;;;1.42;0.50;;;;;;;;;;5091981;28;20128;-46
2022/09/23 14:11:22;;;;;;;10.90;1.38;;;;;;;;;;5093520;28;20692;-46
2022/09/23 14:13:53;;;;;;;2.22;0.55;;;;;;;;;;5092904;28;20130;-47
2022/09/23 14:16:35;;;;;;;3.33;0.98;;;;;;;;;;5089549;28;20660;-47
2022/09/23 14:19:03;;;;;;;4.40;1.00;;;;;;;;;;5092640;28;20052;-48
2022/09/23 14:21:33;;;;;;;3.53;0.80;;;;;;;;;;5092451;28;20144;-49
2022/09/23 14:24:24;;;;;;;2.88;0.80;;;;;;;;;;5091311;28;20063;-47
2022/09/23 14:26:56;;;;;;;0.80;0.30;;;;;;;;;;5093100;28;20087;-49
2022/09/23 14:29:25;;;;;;;1.33;0.50;;;;;;;;;;5092665;28;20048;-50
2022/09/23 14:32:02;;;;;;;1.52;0.60;;;;;;;;;;5090292;28;20048;-47
2022/09/23 14:34:44;;;;;;;5.85;0.70;;;;;;;;;;5089355;28;20052;-49
2022/09/23 14:40:13;;;;;;;2.50;0.60;;;;;;;;;;5086123;28;20063;-47
2022/09/23 14:42:51;;;;;;;4.75;1.00;;;;;;;;;;5091885;28;20051;-47
2022/09/23 14:45:22;;;;;;;1.90;0.90;;;;;;;;;;5093121;28;20067;-47
2022/09/23 14:47:53;;;;;;;5.07;1.20;;;;;;;;;;5092113;28;20056;-48
2022/09/23 14:50:46;;;;;;;3.95;1.50;;;;;;;;;;5093128;28;20051;-47
2022/09/23 14:53:44;;;;;;;4.72;1.27;;;;;;;;;;5082257;28;20052;-48
2022/09/23 14:56:18;;;;;;;1.85;1.00;;;;;;;;;;5083125;28;20067;-47
2022/09/23 14:58:52;;;;;;;2.90;1.25;;;;;;;;;;5089136;28;20048;-48
2022/09/23 15:01:26;;;;;;;3.00;1.20;;;;;;;;;;5078253;28;20052;-47
2022/09/23 15:04:10;;;;;;;3.28;1.05;;;;;;;;;;5088644;28;20055;-46
2022/09/23 15:06:39;;;;;;;2.15;0.88;;;;;;;;;;5078319;28;20127;-47
2022/09/23 15:09:09;;;;;;;3.72;1.25;;;;;;;;;;5089698;28;20055;-48
2022/09/23 15:11:36;;;;;;;2.38;0.95;;;;;;;;;;5091510;28;20040;-47
2022/09/23 15:14:12;;;;;;;4.50;1.17;;;;;;;;;;5092057;28;20080;-47
2022/09/23 15:16:48;;;;;;;1.67;0.98;;;;;;;;;;5086116;28;20173;-48
2022/09/23 15:19:18;;;;;;;2.53;1.35;;;;;;;;;;5091895;28;20667;-46
2022/09/23 15:21:48;;;;;;;4.07;1.30;;;;;;;;;;5055721;28;20131;-47
2022/09/23 15:24:33;;;;;;;3.28;0.98;;;;;;;;;;5061241;28;20135;-47
2022/09/23 15:27:03;;;;;;;4.43;1.30;;;;;;;;;;5071070;28;20052;-47
2022/09/23 15:29:32;;;;;;;3.15;0.88;;;;;;;;;;5069191;28;20071;-48
2022/09/23 15:32:02;;;;;;;1.75;0.80;;;;;;;;;;5071659;28;20044;-51